Terminal Aerodrome Forecast
Issued by NWS North Platte, NE

Home | Current Version | Previous Version | Text Only | Print | Product List | Glossary Off
Versions: 1 2 3 4 5 6 7 8 9 10 11 12 13 14 15 16 17 18 19 20

000
FTUS43 KLBF 281122
TAFVTN
TAF
KVTN 281122Z 2812/2912 13008KT P6SM -RA OVC060
     FM281700 12011KT P6SM -RA OVC025
     FM282300 11012KT P6SM -RA OVC015
     FM290100 11010KT P6SM -RA OVC015
     FM290400 09007KT 6SM -RA OVC015
     FM290600 09006KT 4SM -RA OVC008=

USA.gov is the U.S. government's official web portal to all federal, state and local government web resources and services.